Time;durP1;ratioP1;P1;durP2;ratioP2;P2;SDS_P1;SDS_P2;PMS_P1;PMS_P2;Temp;Humidity;BMP_temperature;BMP_pressure;BME280_temperature;BME280_humidity;BME280_pressure;Samples;Min_cycle;Max_cycle;Signal;HPM_P1;HPM_P2
2021/06/26 00:02:04;;;;;;;31.02;26.45;;;18.80;95.80;;;;;;5015808;28;20029;-60
2021/06/26 00:04:29;;;;;;;29.20;25.75;;;18.80;95.90;;;;;;5033402;28;20392;-59
2021/06/26 00:06:55;;;;;;;30.27;27.08;;;18.80;95.90;;;;;;5033266;28;20556;-58
2021/06/26 00:09:21;;;;;;;29.60;26.20;;;18.80;96.00;;;;;;5032545;28;20481;-61
2021/06/26 00:11:48;;;;;;;29.67;26.52;;;18.70;96.10;;;;;;5033474;28;20544;-61
2021/06/26 00:14:14;;;;;;;30.50;26.23;;;18.70;96.10;;;;;;5002723;28;20060;-60
2021/06/26 00:16:40;;;;;;;29.38;26.27;;;18.70;96.20;;;;;;5032594;28;20442;-60
2021/06/26 00:19:05;;;;;;;29.60;26.42;;;18.70;96.10;;;;;;5033456;28;20029;-60
2021/06/26 00:21:31;;;;;;;29.48;26.35;;;18.60;96.20;;;;;;5033869;28;20030;-61
2021/06/26 00:23:57;;;;;;;30.35;27.02;;;18.60;96.20;;;;;;5033344;28;20037;-61
2021/06/26 00:26:22;;;;;;;34.97;27.98;;;18.50;96.20;;;;;;5038289;28;20076;-61
2021/06/26 00:28:48;;;;;;;32.85;29.17;;;18.50;96.40;;;;;;5034536;28;20030;-60
2021/06/26 00:31:14;;;;;;;30.70;27.55;;;18.40;96.40;;;;;;5032694;28;20052;-60
2021/06/26 00:33:40;;;;;;;32.63;29.08;;;18.40;96.50;;;;;;5033327;28;20036;-61
2021/06/26 00:36:06;;;;;;;30.75;27.27;;;18.30;96.60;;;;;;5032987;28;20029;-58
2021/06/26 00:38:31;;;;;;;27.45;24.63;;;18.20;96.50;;;;;;5033266;28;20041;-61
2021/06/26 00:40:57;;;;;;;32.35;25.70;;;18.20;96.70;;;;;;5033677;28;20420;-61
2021/06/26 00:43:23;;;;;;;30.23;25.60;;;18.20;96.70;;;;;;5033639;28;20033;-60
2021/06/26 00:45:49;;;;;;;29.65;26.20;;;18.20;96.70;;;;;;5032590;28;20017;-60
2021/06/26 00:48:15;;;;;;;27.77;24.52;;;18.10;96.70;;;;;;5033166;28;20033;-61
2021/06/26 00:50:40;;;;;;;27.30;24.38;;;18.10;96.70;;;;;;5033430;28;20088;-61
2021/06/26 00:53:06;;;;;;;28.42;25.38;;;18.10;96.70;;;;;;5032931;28;20448;-58
2021/06/26 00:55:32;;;;;;;28.55;24.20;;;18.10;96.60;;;;;;5015352;28;20041;-60
2021/06/26 00:57:58;;;;;;;26.50;23.25;;;18.10;96.60;;;;;;5032952;28;20033;-60
2021/06/26 01:00:29;;;;;;;27.98;25.15;;;18.10;96.50;;;;;;5032352;28;20080;-60
2021/06/26 01:02:55;;;;;;;31.00;26.48;;;18.10;96.60;;;;;;5032822;28;20029;-60
2021/06/26 01:05:21;;;;;;;32.33;26.30;;;18.00;96.60;;;;;;5032239;28;20036;-61
2021/06/26 01:07:47;;;;;;;28.85;23.73;;;18.00;96.60;;;;;;5032347;28;20025;-61
2021/06/26 01:10:13;;;;;;;25.92;23.20;;;18.00;96.70;;;;;;5032566;28;20068;-60
2021/06/26 01:12:39;;;;;;;25.67;23.08;;;18.00;96.70;;;;;;5032405;28;20021;-60
2021/06/26 01:15:07;;;;;;;27.35;24.52;;;18.00;96.60;;;;;;5032896;28;20041;-60
2021/06/26 01:17:33;;;;;;;26.10;23.33;;;18.00;96.50;;;;;;5032226;28;20057;-60
2021/06/26 01:20:00;;;;;;;27.90;24.80;;;18.00;96.40;;;;;;5032525;28;20056;-60
2021/06/26 01:22:27;;;;;;;26.08;23.38;;;18.00;96.50;;;;;;5032787;28;20021;-61
2021/06/26 01:24:53;;;;;;;26.50;23.27;;;17.90;96.60;;;;;;5033164;28;20036;-61
2021/06/26 01:27:20;;;;;;;24.20;21.80;;;17.90;96.70;;;;;;5032145;28;20030;-60
2021/06/26 01:29:52;;;;;;;24.17;21.67;;;17.90;96.60;;;;;;5033248;28;20053;-61
2021/06/26 01:32:19;;;;;;;25.75;23.02;;;17.90;96.50;;;;;;5032762;28;20029;-61
2021/06/26 01:34:45;;;;;;;23.08;20.50;;;17.90;96.40;;;;;;5021319;28;20041;-60
2021/06/26 01:37:12;;;;;;;24.10;21.60;;;17.90;96.40;;;;;;5025338;28;20029;-60
2021/06/26 01:39:37;;;;;;;25.10;21.77;;;17.90;96.30;;;;;;5032127;28;20029;-60
2021/06/26 01:42:04;;;;;;;22.45;20.02;;;17.90;96.30;;;;;;5032058;28;20566;-61
2021/06/26 01:44:30;;;;;;;24.48;21.90;;;17.90;96.20;;;;;;5032592;28;20056;-60
2021/06/26 01:46:55;;;;;;;23.75;19.95;;;17.90;96.20;;;;;;5014435;28;20465;-61
2021/06/26 01:49:21;;;;;;;23.30;20.88;;;17.90;96.30;;;;;;5014127;28;20616;-60
2021/06/26 01:51:46;;;;;;;22.60;20.33;;;17.90;96.30;;;;;;5032193;28;20039;-59
2021/06/26 01:54:13;;;;;;;22.50;20.15;;;17.90;96.20;;;;;;5032263;28;20060;-61
2021/06/26 01:56:39;;;;;;;23.35;20.67;;;17.90;96.20;;;;;;5031313;28;20098;-61
2021/06/26 01:59:05;;;;;;;22.73;20.42;;;17.90;96.20;;;;;;5032054;28;20045;-61
2021/06/26 02:01:32;;;;;;;22.35;20.05;;;17.90;96.20;;;;;;5032418;28;20033;-60
2021/06/26 02:03:58;;;;;;;23.00;19.83;;;18.00;96.20;;;;;;5031931;28;20059;-60
2021/06/26 02:06:24;;;;;;;22.98;20.52;;;18.00;96.10;;;;;;5030679;28;20034;-59
2021/06/26 02:08:49;;;;;;;22.13;18.38;;;17.90;96.20;;;;;;5032108;28;20516;-61
2021/06/26 02:11:15;;;;;;;24.20;21.63;;;17.90;96.20;;;;;;5032196;28;20025;-60
2021/06/26 02:13:41;;;;;;;20.80;18.52;;;17.90;96.20;;;;;;5032199;28;20048;-59
2021/06/26 02:16:07;;;;;;;24.40;20.83;;;17.90;96.20;;;;;;5031753;28;20081;-61
2021/06/26 02:18:32;;;;;;;23.83;21.42;;;17.90;96.20;;;;;;5031953;28;20121;-60
2021/06/26 02:20:58;;;;;;;21.75;19.42;;;17.90;96.20;;;;;;5031650;28;20044;-61
2021/06/26 02:23:24;;;;;;;22.40;20.08;;;18.00;96.30;;;;;;5032736;28;20057;-60
2021/06/26 02:25:49;;;;;;;22.45;20.15;;;17.90;96.20;;;;;;5031995;28;20362;-59
2021/06/26 02:28:15;;;;;;;23.25;20.67;;;18.00;96.20;;;;;;5031744;28;20065;-60
2021/06/26 02:30:41;;;;;;;25.63;20.38;;;18.00;96.20;;;;;;5014387;28;20037;-62
2021/06/26 02:33:07;;;;;;;24.92;20.55;;;18.00;96.20;;;;;;5033796;28;20041;-61
2021/06/26 02:35:33;;;;;;;29.48;26.08;;;18.00;96.10;;;;;;5035176;28;20072;-60
2021/06/26 02:37:58;;;;;;;35.08;28.80;;;17.90;96.30;;;;;;5022253;28;20080;-60
2021/06/26 02:40:24;;;;;;;29.45;24.73;;;17.90;96.30;;;;;;5034919;28;20041;-61
2021/06/26 02:42:49;;;;;;;26.67;22.60;;;17.90;96.40;;;;;;5035348;28;20025;-60
2021/06/26 02:45:15;;;;;;;29.73;24.08;;;17.90;96.40;;;;;;5035208;28;20032;-60
2021/06/26 02:47:41;;;;;;;25.75;22.90;;;17.90;96.40;;;;;;5035257;28;20032;-60
2021/06/26 02:50:08;;;;;;;25.27;22.55;;;17.90;96.40;;;;;;5035278;28;20033;-60
2021/06/26 02:52:34;;;;;;;25.30;22.13;;;17.80;96.50;;;;;;5035295;28;20060;-61
2021/06/26 02:54:59;;;;;;;25.65;22.20;;;17.90;96.50;;;;;;5035032;28;20064;-61
2021/06/26 02:57:25;;;;;;;29.08;23.20;;;17.80;96.60;;;;;;5034814;28;20045;-60
2021/06/26 02:59:52;;;;;;;25.15;22.42;;;17.90;96.70;;;;;;5035157;28;20041;-61
2021/06/26 03:02:17;;;;;;;28.42;23.60;;;17.80;96.30;;;;;;5055054;28;20639;-59
2021/06/26 03:04:44;;;;;;;24.85;22.25;;;17.70;96.60;;;;;;5055507;28;20096;-62
2021/06/26 03:07:10;;;;;;;26.13;22.60;;;17.70;96.60;;;;;;5054454;28;20062;-61
2021/06/26 03:09:36;;;;;;;25.52;22.13;;;17.70;96.60;;;;;;5055076;28;20033;-61
2021/06/26 03:12:02;;;;;;;28.58;22.63;;;17.60;96.70;;;;;;5044879;28;20548;-60
2021/06/26 03:14:28;;;;;;;27.20;22.67;;;17.60;96.60;;;;;;5034754;28;20049;-61
2021/06/26 03:16:53;;;;;;;26.27;21.50;;;17.70;96.70;;;;;;5034376;28;20037;-61
2021/06/26 03:19:19;;;;;;;23.20;20.60;;;17.70;96.70;;;;;;5016680;28;20038;-61
2021/06/26 03:21:44;;;;;;;23.80;21.20;;;17.70;96.60;;;;;;5034496;28;20040;-61
2021/06/26 03:24:10;;;;;;;25.02;22.33;;;17.70;96.30;;;;;;5034531;28;20025;-61
2021/06/26 03:26:36;;;;;;;29.45;23.75;;;17.70;96.50;;;;;;5035621;28;20057;-60
2021/06/26 03:29:02;;;;;;;24.02;21.33;;;17.60;96.30;;;;;;5035758;28;20053;-62
2021/06/26 03:31:28;;;;;;;20.30;18.02;;;17.50;96.70;;;;;;5035439;28;20036;-60
2021/06/26 03:33:54;;;;;;;19.13;16.95;;;17.40;96.70;;;;;;5034303;28;20037;-61
2021/06/26 03:36:20;;;;;;;20.42;17.90;;;17.40;96.70;;;;;;5033958;28;20025;-61
2021/06/26 03:38:45;;;;;;;22.92;18.27;;;17.40;96.70;;;;;;5034306;28;20509;-60
2021/06/26 03:41:11;;;;;;;21.02;18.90;;;17.30;96.70;;;;;;5034737;28;20045;-60
2021/06/26 03:43:38;;;;;;;29.33;19.40;;;17.30;96.70;;;;;;5032485;28;20036;-61
2021/06/26 03:46:03;;;;;;;24.60;21.55;;;17.30;96.60;;;;;;5034248;28;20137;-60
2021/06/26 03:48:29;;;;;;;33.28;28.38;;;17.30;96.80;;;;;;5034173;28;20029;-61
2021/06/26 03:50:59;;;;;;;36.15;28.08;;;17.30;96.80;;;;;;5033776;28;20037;-60
2021/06/26 03:53:26;;;;;;;31.42;23.67;;;17.30;96.90;;;;;;5033746;28;20449;-59
2021/06/26 03:55:51;;;;;;;26.73;22.90;;;17.30;97.20;;;;;;5033936;28;20033;-60
2021/06/26 03:58:25;;;;;;;23.90;21.40;;;17.40;96.90;;;;;;5033711;28;20148;-60
2021/06/26 04:00:51;;;;;;;26.05;21.60;;;17.40;96.80;;;;;;5034663;28;20088;-58
2021/06/26 04:03:16;;;;;;;30.88;25.33;;;17.50;96.90;;;;;;5033682;28;20412;-61
2021/06/26 04:05:43;;;;;;;30.63;25.10;;;17.50;96.90;;;;;;5015275;28;20112;-61
2021/06/26 04:08:10;;;;;;;27.92;23.88;;;17.50;96.80;;;;;;5015972;28;20064;-62
2021/06/26 04:10:35;;;;;;;29.65;23.95;;;17.60;96.80;;;;;;5033391;28;20033;-61
2021/06/26 04:13:01;;;;;;;29.15;25.38;;;17.50;96.70;;;;;;5033387;28;20025;-60
2021/06/26 04:15:27;;;;;;;32.78;26.52;;;17.50;96.70;;;;;;5033321;28;20392;-61
2021/06/26 04:17:52;;;;;;;31.88;25.50;;;17.50;96.80;;;;;;5015624;28;20040;-60
2021/06/26 04:20:18;;;;;;;30.65;25.83;;;17.50;96.80;;;;;;5032923;28;20041;-61
2021/06/26 04:22:45;;;;;;;25.55;22.60;;;17.60;96.90;;;;;;5033141;28;20068;-59
2021/06/26 04:25:12;;;;;;;27.40;23.30;;;17.60;96.60;;;;;;5033373;28;20025;-61
2021/06/26 04:27:38;;;;;;;30.42;25.00;;;17.70;96.40;;;;;;5032628;28;20044;-62
2021/06/26 04:30:05;;;;;;;32.60;26.25;;;17.80;96.30;;;;;;5016331;28;20029;-60
2021/06/26 04:32:30;;;;;;;28.73;22.23;;;17.80;96.30;;;;;;5032972;28;20044;-61
2021/06/26 04:34:56;;;;;;;25.77;21.42;;;17.90;96.20;;;;;;5038340;28;20516;-61
2021/06/26 04:37:22;;;;;;;24.48;21.35;;;17.90;96.20;;;;;;5033122;28;20048;-61
2021/06/26 04:39:47;;;;;;;24.10;21.38;;;18.00;96.20;;;;;;5033023;28;20167;-61
2021/06/26 04:42:13;;;;;;;25.25;21.48;;;18.00;96.20;;;;;;5033448;28;20033;-61
2021/06/26 04:44:39;;;;;;;29.08;22.00;;;18.00;96.10;;;;;;5052918;28;20025;-63
2021/06/26 04:47:05;;;;;;;29.65;22.40;;;18.00;96.20;;;;;;5053065;28;20502;-59
2021/06/26 04:49:30;;;;;;;29.23;21.30;;;18.10;96.20;;;;;;5053776;28;20033;-61
2021/06/26 04:51:56;;;;;;;24.60;19.52;;;18.10;96.20;;;;;;5043256;28;20385;-57
2021/06/26 04:54:22;;;;;;;32.33;23.75;;;18.20;96.20;;;;;;5032767;28;20129;-61
2021/06/26 04:56:48;;;;;;;28.83;22.85;;;18.20;95.90;;;;;;5032688;28;20116;-60
2021/06/26 04:59:14;;;;;;;30.23;24.67;;;18.30;95.80;;;;;;5033326;28;20065;-61
2021/06/26 05:01:39;;;;;;;36.55;27.38;;;18.30;95.70;;;;;;5030051;28;20523;-60
2021/06/26 05:04:05;;;;;;;31.38;26.05;;;18.40;95.50;;;;;;5025820;28;20168;-60
2021/06/26 05:06:30;;;;;;;32.17;25.00;;;18.40;95.50;;;;;;5032006;28;20069;-59
2021/06/26 05:08:57;;;;;;;29.67;24.73;;;18.40;95.50;;;;;;5032698;28;20547;-61
2021/06/26 05:11:23;;;;;;;33.10;26.25;;;18.40;95.50;;;;;;5033328;28;20022;-61
2021/06/26 05:13:49;;;;;;;29.25;25.90;;;18.40;95.50;;;;;;5033137;28;20030;-58
2021/06/26 05:16:14;;;;;;;28.38;23.13;;;18.50;95.50;;;;;;5014417;28;20037;-61
2021/06/26 05:18:40;;;;;;;32.65;24.23;;;18.40;95.60;;;;;;5033763;28;20501;-61
2021/06/26 05:21:06;;;;;;;26.77;21.35;;;18.60;95.60;;;;;;5032345;28;20737;-61
2021/06/26 05:23:32;;;;;;;24.92;22.00;;;18.60;95.50;;;;;;5032111;28;20029;-61
2021/06/26 05:25:58;;;;;;;29.85;23.90;;;18.80;95.30;;;;;;5032012;28;20026;-60
2021/06/26 05:28:24;;;;;;;26.05;23.27;;;18.80;95.00;;;;;;5032262;28;20056;-61
2021/06/26 05:30:50;;;;;;;25.55;22.85;;;19.00;94.80;;;;;;5032016;28;20442;-61
2021/06/26 05:33:15;;;;;;;28.98;23.38;;;19.10;94.50;;;;;;5031804;28;20088;-60
2021/06/26 05:35:41;;;;;;;24.80;21.05;;;19.10;94.50;;;;;;5032083;28;20520;-60
2021/06/26 05:38:07;;;;;;;24.75;21.48;;;19.20;94.60;;;;;;5031933;28;20049;-62
2021/06/26 05:40:33;;;;;;;27.50;21.63;;;19.30;94.40;;;;;;5032199;28;20041;-61
2021/06/26 05:42:59;;;;;;;25.50;22.27;;;19.30;94.20;;;;;;5033293;28;20118;-60
2021/06/26 05:45:24;;;;;;;26.90;21.73;;;19.30;94.10;;;;;;5031603;28;20512;-61
2021/06/26 05:47:50;;;;;;;28.02;23.70;;;19.40;94.10;;;;;;5031782;28;20038;-60
2021/06/26 05:50:16;;;;;;;26.98;21.30;;;19.40;94.00;;;;;;5031844;28;20025;-61
2021/06/26 05:52:53;;;;;;;22.60;19.80;;;19.50;93.80;;;;;;5031286;28;20083;-60
2021/06/26 05:55:20;;;;;;;22.95;20.60;;;19.60;93.80;;;;;;5031637;28;20104;-60
2021/06/26 05:57:46;;;;;;;25.08;22.38;;;19.70;93.70;;;;;;5031889;28;20107;-60
2021/06/26 06:00:14;;;;;;;25.52;20.65;;;19.70;93.60;;;;;;5031377;28;20033;-60
2021/06/26 06:02:40;;;;;;;22.70;20.13;;;19.80;93.50;;;;;;5031867;28;20109;-61
2021/06/26 06:05:09;;;;;;;20.73;18.50;;;19.90;93.30;;;;;;5031696;28;20036;-61
2021/06/26 06:07:36;;;;;;;21.67;19.38;;;20.00;93.30;;;;;;5032954;28;20020;-60
2021/06/26 06:10:07;;;;;;;22.40;20.10;;;20.10;93.10;;;;;;5036052;28;20034;-60
2021/06/26 06:12:33;;;;;;;21.13;19.05;;;20.20;92.80;;;;;;5029253;28;20113;-62
2021/06/26 06:15:00;;;;;;;24.35;21.65;;;20.20;92.70;;;;;;5035473;28;20037;-61
2021/06/26 06:17:26;;;;;;;24.90;21.50;;;20.10;92.40;;;;;;5033871;28;20033;-61
2021/06/26 06:19:52;;;;;;;23.40;21.00;;;20.20;92.30;;;;;;5035228;28;20088;-61
2021/06/26 06:22:17;;;;;;;26.17;22.42;;;20.30;92.10;;;;;;5035602;28;20040;-61
2021/06/26 06:24:43;;;;;;;24.60;21.90;;;20.40;91.50;;;;;;5035640;28;20107;-61
2021/06/26 06:27:08;;;;;;;20.80;18.60;;;20.40;91.30;;;;;;5034946;28;20033;-60
2021/06/26 06:29:34;;;;;;;25.23;20.08;;;20.50;91.50;;;;;;5035488;28;20052;-61
2021/06/26 06:31:59;;;;;;;23.85;21.05;;;20.50;91.60;;;;;;5028338;28;20392;-64
2021/06/26 06:34:25;;;;;;;21.15;18.90;;;20.60;91.30;;;;;;5022411;28;20037;-61
2021/06/26 06:36:51;;;;;;;22.70;19.05;;;20.70;91.10;;;;;;5016717;28;20396;-59
2021/06/26 06:39:16;;;;;;;22.58;20.30;;;20.80;90.90;;;;;;5034751;28;20037;-62
2021/06/26 06:41:42;;;;;;;22.50;18.42;;;20.80;90.90;;;;;;5034681;28;20038;-61
2021/06/26 06:44:08;;;;;;;21.15;18.95;;;20.70;91.10;;;;;;5034794;28;20048;-61
2021/06/26 06:46:33;;;;;;;21.92;19.73;;;20.90;90.60;;;;;;5034656;28;20370;-60
2021/06/26 06:48:59;;;;;;;21.95;19.67;;;20.90;90.20;;;;;;5017150;28;20061;-62
2021/06/26 06:51:24;;;;;;;20.08;16.00;;;21.10;89.40;;;;;;5016842;28;20087;-62
2021/06/26 06:53:50;;;;;;;20.33;17.63;;;21.10;88.10;;;;;;5035109;28;20026;-61
2021/06/26 06:56:15;;;;;;;17.42;15.32;;;21.10;88.20;;;;;;5031030;28;20396;-60
2021/06/26 06:58:41;;;;;;;16.08;14.27;;;21.30;86.90;;;;;;5031612;28;20525;-61
2021/06/26 07:01:06;;;;;;;14.68;13.02;;;21.30;87.10;;;;;;5032495;28;20120;-60
2021/06/26 07:03:33;;;;;;;18.60;14.60;;;21.40;86.00;;;;;;5034239;28;20033;-60
2021/06/26 07:05:58;;;;;;;15.43;12.80;;;21.50;86.20;;;;;;5034352;28;20152;-61
2021/06/26 07:08:24;;;;;;;16.92;14.63;;;21.50;86.20;;;;;;5031694;28;20427;-61
2021/06/26 07:10:52;;;;;;;14.80;13.18;;;21.60;85.00;;;;;;5033947;28;20031;-62
2021/06/26 07:13:18;;;;;;;16.20;13.77;;;21.60;84.20;;;;;;5030310;28;20447;-60
2021/06/26 07:15:44;;;;;;;13.35;11.98;;;21.70;84.50;;;;;;5012938;28;20037;-62
2021/06/26 07:18:12;;;;;;;16.50;14.65;;;21.70;84.40;;;;;;5030966;28;20034;-60
2021/06/26 07:20:38;;;;;;;14.75;12.75;;;21.70;83.60;;;;;;5016258;28;20034;-62
2021/06/26 07:23:04;;;;;;;22.88;20.33;;;21.70;83.60;;;;;;5034193;28;20029;-62
2021/06/26 07:25:29;;;;;;;16.95;15.15;;;21.80;83.40;;;;;;5039510;28;20159;-60
2021/06/26 07:27:55;;;;;;;16.95;15.25;;;21.80;83.50;;;;;;5037661;28;20108;-60
2021/06/26 07:30:20;;;;;;;17.20;14.35;;;21.70;82.30;;;;;;5015541;28;20108;-61
2021/06/26 07:32:46;;;;;;;16.55;14.85;;;21.80;81.70;;;;;;5028804;28;20054;-63
2021/06/26 07:35:12;;;;;;;17.33;13.63;;;21.90;81.80;;;;;;5034428;28;20589;-59
2021/06/26 07:37:38;;;;;;;17.70;15.35;;;22.00;81.00;;;;;;5034061;28;20069;-62
2021/06/26 07:40:04;;;;;;;17.17;14.45;;;22.10;81.00;;;;;;5034075;28;20053;-61
2021/06/26 07:42:30;;;;;;;17.85;14.93;;;22.20;80.80;;;;;;5034379;28;20389;-62
2021/06/26 07:44:55;;;;;;;17.27;15.48;;;22.20;79.90;;;;;;5034445;28;20036;-62
2021/06/26 07:47:21;;;;;;;20.40;17.08;;;22.20;78.70;;;;;;5033767;28;20547;-62
2021/06/26 07:49:46;;;;;;;16.70;14.95;;;22.10;78.70;;;;;;5034804;28;20045;-60
2021/06/26 07:52:18;;;;;;;16.35;14.68;;;22.10;79.40;;;;;;5036442;28;20037;-62
2021/06/26 07:54:43;;;;;;;22.35;19.42;;;22.10;79.10;;;;;;5033789;28;20041;-63
2021/06/26 07:57:09;;;;;;;20.73;18.52;;;22.30;78.60;;;;;;5034487;28;20041;-63
2021/06/26 07:59:34;;;;;;;22.63;18.02;;;22.20;77.90;;;;;;5033629;28;20060;-61
2021/06/26 08:02:00;;;;;;;18.02;16.13;;;22.30;77.40;;;;;;5033615;28;20061;-61
2021/06/26 08:04:26;;;;;;;19.73;16.60;;;22.40;78.10;;;;;;5016177;28;20112;-61
2021/06/26 08:06:51;;;;;;;17.33;15.57;;;22.40;78.10;;;;;;5033458;28;20034;-62
2021/06/26 08:09:17;;;;;;;18.52;16.65;;;22.50;77.90;;;;;;5033735;28;20049;-60
2021/06/26 08:11:43;;;;;;;17.90;16.00;;;22.60;77.70;;;;;;4996519;28;20389;-61
2021/06/26 08:14:08;;;;;;;16.63;14.95;;;22.70;77.50;;;;;;5032296;28;20065;-62
2021/06/26 08:16:34;;;;;;;18.23;16.25;;;22.70;77.60;;;;;;5032549;28;20052;-61
2021/06/26 08:19:00;;;;;;;17.77;15.85;;;22.80;77.70;;;;;;5033366;28;20043;-61
2021/06/26 08:21:26;;;;;;;17.33;15.50;;;23.00;77.10;;;;;;5032841;28;20043;-61
2021/06/26 08:23:53;;;;;;;19.42;17.33;;;22.90;77.10;;;;;;5033608;28;20029;-62
2021/06/26 08:26:18;;;;;;;17.90;16.02;;;23.00;76.70;;;;;;5028897;28;20098;-62
2021/06/26 08:28:44;;;;;;;18.50;16.13;;;22.90;77.50;;;;;;5015906;28;20433;-61
2021/06/26 08:31:10;;;;;;;19.30;16.15;;;23.10;76.40;;;;;;5026972;28;20396;-62
2021/06/26 08:33:36;;;;;;;17.70;15.73;;;22.80;77.00;;;;;;5025422;28;20053;-60
2021/06/26 08:36:02;;;;;;;18.95;16.05;;;22.70;76.40;;;;;;5033168;28;20026;-61
2021/06/26 08:38:27;;;;;;;17.45;15.65;;;22.80;75.90;;;;;;5033101;28;20068;-62
2021/06/26 08:40:55;;;;;;;19.23;16.58;;;22.90;74.90;;;;;;5015048;28;20041;-61
2021/06/26 08:43:21;;;;;;;14.55;13.13;;;22.90;75.60;;;;;;5015455;28;20033;-61
2021/06/26 08:45:47;;;;;;;14.48;13.02;;;22.80;76.00;;;;;;5031353;28;20032;-62
2021/06/26 08:48:13;;;;;;;15.93;14.27;;;22.90;75.60;;;;;;5026345;28;20037;-62
2021/06/26 08:50:39;;;;;;;16.08;14.48;;;23.00;74.50;;;;;;5032489;28;20504;-62
2021/06/26 08:53:06;;;;;;;14.95;12.77;;;23.10;74.90;;;;;;5029917;28;20029;-61
2021/06/26 08:55:31;;;;;;;14.00;12.65;;;23.10;74.80;;;;;;5033513;28;20033;-61
2021/06/26 08:58:01;;;;;;;12.93;11.65;;;23.30;74.40;;;;;;5032352;28;20481;-62
2021/06/26 09:00:27;;;;;;;16.85;14.25;;;23.40;74.30;;;;;;5032512;28;20117;-59
2021/06/26 09:03:05;;;;;;;17.38;15.68;;;23.30;74.30;;;;;;5032278;28;20497;-63
2021/06/26 09:05:31;;;;;;;16.80;15.10;;;23.20;74.20;;;;;;5014498;28;20168;-61
2021/06/26 09:08:08;;;;;;;16.17;14.65;;;23.30;74.30;;;;;;5028936;28;21408;-60
2021/06/26 09:10:34;;;;;;;17.30;15.30;;;23.50;74.40;;;;;;5032856;28;20022;-62
2021/06/26 09:13:28;;;;;;;18.48;16.52;;;23.40;73.50;;;;;;5016951;28;20132;-64
2021/06/26 09:16:11;;;;;;;16.40;14.80;;;23.40;74.20;;;;;;5034547;28;20084;-62
2021/06/26 09:18:45;;;;;;;18.35;16.42;;;23.50;73.70;;;;;;5032016;28;20026;-61
2021/06/26 09:21:36;;;;;;;19.40;17.48;;;23.30;74.20;;;;;;5014321;28;20045;-60
2021/06/26 09:24:04;;;;;;;16.75;15.20;;;23.30;73.80;;;;;;5032279;28;20025;-62
2021/06/26 09:26:30;;;;;;;16.23;14.73;;;23.10;74.60;;;;;;5033398;28;20110;-61
2021/06/26 09:29:07;;;;;;;16.73;15.13;;;23.20;73.90;;;;;;5031818;28;20033;-61
2021/06/26 09:31:32;;;;;;;17.60;15.73;;;23.10;74.00;;;;;;5022465;28;20050;-61
2021/06/26 09:34:00;;;;;;;15.82;13.93;;;22.90;74.90;;;;;;5027197;28;20060;-61
2021/06/26 09:36:31;;;;;;;17.00;15.25;;;22.80;75.10;;;;;;5028295;28;20072;-62
2021/06/26 09:39:06;;;;;;;16.00;14.50;;;23.00;74.30;;;;;;5030379;28;20041;-62
2021/06/26 09:41:31;;;;;;;16.58;14.95;;;23.10;74.80;;;;;;5031572;28;20096;-60
2021/06/26 09:44:11;;;;;;;17.13;15.60;;;23.00;74.70;;;;;;5030939;28;20017;-58
2021/06/26 09:46:46;;;;;;;16.77;15.20;;;23.30;74.00;;;;;;5030089;28;20388;-62
2021/06/26 09:49:13;;;;;;;17.88;16.08;;;23.50;73.10;;;;;;5029408;28;20018;-60
2021/06/26 09:51:38;;;;;;;14.75;13.35;;;23.20;73.70;;;;;;5011054;28;20030;-61
2021/06/26 09:54:08;;;;;;;14.32;12.85;;;23.60;73.10;;;;;;5019120;28;20565;-61
2021/06/26 09:56:46;;;;;;;14.25;12.88;;;24.00;71.50;;;;;;5013343;28;20092;-61
2021/06/26 09:59:14;;;;;;;14.48;13.00;;;24.40;68.20;;;;;;4993182;28;20045;-63
2021/06/26 10:01:43;;;;;;;14.20;12.80;;;24.40;68.40;;;;;;5009499;28;20038;-62
2021/06/26 10:04:13;;;;;;;13.73;12.40;;;24.20;69.80;;;;;;5015803;28;20026;-62
2021/06/26 10:06:40;;;;;;;15.60;14.00;;;24.30;70.00;;;;;;5012559;28;20404;-61
2021/06/26 10:09:06;;;;;;;13.38;12.18;;;24.20;69.20;;;;;;5010733;28;20077;-60
2021/06/26 10:11:33;;;;;;;14.07;12.80;;;24.00;69.30;;;;;;5012645;28;20052;-62
2021/06/26 10:14:04;;;;;;;14.27;12.88;;;24.00;69.50;;;;;;5012306;28;20100;-61
2021/06/26 10:16:31;;;;;;;14.70;13.30;;;24.20;69.60;;;;;;5009798;28;20084;-62
2021/06/26 10:19:01;;;;;;;13.93;12.65;;;24.40;68.70;;;;;;5012036;28;20034;-63
2021/06/26 10:21:29;;;;;;;13.63;12.32;;;24.40;68.20;;;;;;5013150;28;20038;-62
2021/06/26 10:23:56;;;;;;;14.70;13.30;;;24.40;69.00;;;;;;5014904;28;20069;-58
2021/06/26 10:26:23;;;;;;;13.77;11.75;;;24.60;68.30;;;;;;5002062;28;20026;-60
2021/06/26 10:28:50;;;;;;;12.10;11.02;;;24.60;68.60;;;;;;5009373;28;20060;-60
2021/06/26 10:31:28;;;;;;;13.63;12.30;;;24.60;67.90;;;;;;5013727;28;20045;-61
2021/06/26 10:34:05;;;;;;;13.65;12.35;;;24.50;68.30;;;;;;4994235;28;20041;-61
2021/06/26 10:36:33;;;;;;;13.32;12.13;;;24.40;68.90;;;;;;5012721;28;20050;-62
2021/06/26 10:38:58;;;;;;;13.38;12.02;;;24.20;69.90;;;;;;5018115;28;20040;-61
2021/06/26 10:41:24;;;;;;;13.63;12.32;;;23.90;69.60;;;;;;5009234;28;20491;-61
2021/06/26 10:43:54;;;;;;;13.98;12.57;;;23.90;69.60;;;;;;5010060;28;20022;-61
2021/06/26 10:46:21;;;;;;;13.30;11.95;;;23.70;69.40;;;;;;5010113;28;20034;-59
2021/06/26 10:49:04;;;;;;;13.23;11.95;;;23.60;69.80;;;;;;5014461;28;20397;-59
2021/06/26 10:51:39;;;;;;;13.43;12.13;;;23.80;70.40;;;;;;5007446;28;20048;-60
2021/06/26 10:54:16;;;;;;;13.50;12.25;;;24.10;69.30;;;;;;5013690;28;20177;-59
2021/06/26 10:56:44;;;;;;;11.90;10.80;;;24.20;69.60;;;;;;5035793;28;20076;-56
2021/06/26 10:59:18;;;;;;;12.70;11.43;;;24.20;69.30;;;;;;5032635;28;20037;-59
2021/06/26 11:01:54;;;;;;;12.60;11.40;;;24.40;68.40;;;;;;5034658;28;20026;-58
2021/06/26 11:04:19;;;;;;;13.00;11.70;;;24.70;66.80;;;;;;5034953;28;20022;-59
2021/06/26 11:06:47;;;;;;;12.48;11.27;;;24.90;66.40;;;;;;5033873;28;20037;-60
2021/06/26 11:09:13;;;;;;;11.73;10.63;;;25.00;66.30;;;;;;5028648;28;20573;-59
2021/06/26 11:11:49;;;;;;;15.50;12.23;;;25.30;66.80;;;;;;5034436;28;20112;-58
2021/06/26 11:14:26;;;;;;;12.70;11.57;;;25.70;65.90;;;;;;5014332;28;20125;-59
2021/06/26 11:16:57;;;;;;;13.05;11.88;;;25.80;64.70;;;;;;5033208;28;20029;-60
2021/06/26 11:19:33;;;;;;;12.80;11.68;;;25.60;64.90;;;;;;5034895;28;20108;-60
2021/06/26 11:22:00;;;;;;;14.95;13.55;;;25.80;65.00;;;;;;5035216;28;20053;-58
2021/06/26 11:24:44;;;;;;;13.30;12.00;;;25.50;64.80;;;;;;5034440;28;20389;-58
2021/06/26 11:27:13;;;;;;;15.00;13.33;;;25.70;64.20;;;;;;5033909;28;20030;-59
2021/06/26 11:29:41;;;;;;;13.32;12.02;;;25.70;64.40;;;;;;5033977;28;20496;-59
2021/06/26 11:32:21;;;;;;;11.20;10.10;;;25.70;64.90;;;;;;5035204;28;20029;-58
2021/06/26 11:35:08;;;;;;;13.55;12.25;;;25.70;65.10;;;;;;5026358;28;20389;-59
2021/06/26 11:37:42;;;;;;;11.45;10.27;;;25.70;62.70;;;;;;5032927;28;20413;-59
2021/06/26 11:40:13;;;;;;;;;;;25.80;62.90;;;;;;5046013;28;20806;-60
2021/06/26 11:42:49;;;;;;;12.43;11.13;;;25.90;62.80;;;;;;5034952;28;19913;-58
2021/06/26 11:45:18;;;;;;;14.38;12.98;;;25.70;63.20;;;;;;5034638;28;20022;-58
2021/06/26 11:47:44;;;;;;;13.63;12.18;;;25.60;63.10;;;;;;5033622;28;20088;-58
2021/06/26 11:50:18;;;;;;;11.60;10.45;;;25.30;63.80;;;;;;5034613;28;20061;-61
2021/06/26 11:52:44;;;;;;;12.35;11.13;;;25.20;64.10;;;;;;5034182;28;20116;-57
2021/06/26 11:55:11;;;;;;;14.02;12.55;;;25.10;64.10;;;;;;5034185;28;20041;-60
2021/06/26 11:57:36;;;;;;;12.73;11.57;;;24.90;64.30;;;;;;5033362;28;20113;-59
2021/06/26 12:00:04;;;;;;;12.32;11.23;;;25.00;64.30;;;;;;5033444;28;20112;-60
2021/06/26 12:02:35;;;;;;;11.73;10.63;;;25.10;64.10;;;;;;5034179;28;20489;-59
2021/06/26 12:05:02;;;;;;;11.05;9.65;;;25.20;63.30;;;;;;5034773;28;20030;-59
2021/06/26 12:07:36;;;;;;;13.10;11.80;;;25.50;63.00;;;;;;5016523;28;20037;-59
2021/06/26 12:10:03;;;;;;;;;;;25.80;61.60;;;;;;5035142;28;20048;-57
2021/06/26 12:12:40;;;;;;;11.27;10.18;;;25.80;61.20;;;;;;5034545;28;19921;-58
2021/06/26 12:15:09;;;;;;;11.68;9.98;;;26.20;61.10;;;;;;5034719;28;20044;-58
2021/06/26 12:17:36;;;;;;;12.35;11.13;;;26.30;60.70;;;;;;5033681;28;20501;-59
2021/06/26 12:20:04;;;;;;;12.98;11.10;;;26.00;61.80;;;;;;5030066;28;20193;-59
2021/06/26 12:22:30;;;;;;;12.15;10.95;;;25.90;61.20;;;;;;5032717;28;20060;-59
2021/06/26 12:25:10;;;;;;;12.23;11.05;;;25.50;61.90;;;;;;5033633;28;20054;-58
2021/06/26 12:27:37;;;;;;;10.68;9.65;;;25.00;62.90;;;;;;5007048;28;20060;-59
2021/06/26 12:30:05;;;;;;;11.52;10.40;;;25.00;63.30;;;;;;5032502;28;20037;-59